Galt, Canada
Current Conditions -  °F | °C
As of 6:03 AM on Saturday 01 Nov 2014 (Local Time) from CYKF Reporting Station
Overcast Overcast  
Wind Chill: 21°   Ceiling: 1400
Heat Index: 32°   Visibility: 9mi
Dew Point: 30°   Wind: 16mph
Humidity: 93%   Direction: 360°N
Pressure: 30.11"   Gusts: NA
Location:  43.35°N, 80.3°W
Report Text: CYKF 011003Z AUTO 36014KT 9SM BKN014 OVC055 00/M01 A3011 RMK SLP206
Loading
Personal Weather Stations






























Interactive Weather Map New forecast layout! Learn more

10-Day Weather Forecast

Advertisements
Track Severe Weather on mobile